createdAt,value
2023-04-29T00:00:43.209Z,24.04
2023-04-29T00:03:03.026Z,23.95
2023-04-29T00:05:16.379Z,23.91
2023-04-29T00:07:29.123Z,23.97
2023-04-29T00:09:41.729Z,24.12
2023-04-29T00:11:54.359Z,24.24
2023-04-29T00:14:07.085Z,24.19
2023-04-29T00:16:19.812Z,24.10
2023-04-29T00:18:33.453Z,24.08
2023-04-29T00:20:46.583Z,23.87
2023-04-29T00:22:59.700Z,24.01
2023-04-29T00:25:14.104Z,24.28
2023-04-29T00:27:27.144Z,24.15
2023-04-29T00:29:39.566Z,24.38
2023-04-29T00:31:52.085Z,24.41
2023-04-29T00:34:04.500Z,24.54
2023-04-29T00:36:17.168Z,24.56
2023-04-29T00:38:29.877Z,24.74
2023-04-29T00:40:42.826Z,24.51
2023-04-29T00:42:55.905Z,24.72
2023-04-29T00:45:09.111Z,24.60
2023-04-29T00:47:21.701Z,24.78
2023-04-29T00:49:34.815Z,24.95
2023-04-29T00:51:48.410Z,25.07
2023-04-29T00:54:02.234Z,24.96
2023-04-29T00:56:16.104Z,25.11
2023-04-29T00:58:34.123Z,25.24
2023-04-29T01:00:48.342Z,25.32
2023-04-29T01:03:04.629Z,25.30
2023-04-29T01:05:19.012Z,25.24
2023-04-29T01:07:41.112Z,25.19
2023-04-29T01:10:05.246Z,25.08
2023-04-29T01:12:24.473Z,25.15
2023-04-29T01:14:39.954Z,25.02
2023-04-29T01:17:00.221Z,25.12
2023-04-29T01:19:32.644Z,25.09
2023-04-29T01:21:53.908Z,25.26
2023-04-29T01:24:06.467Z,25.53
2023-04-29T01:26:20.174Z,25.31
2023-04-29T01:28:57.953Z,25.51
2023-04-29T01:31:18.717Z,25.49
2023-04-29T01:33:41.204Z,25.70
2023-04-29T01:36:02.557Z,26.00
2023-04-29T01:38:33.267Z,26.01
2023-04-29T01:40:57.826Z,26.03
2023-04-29T01:43:13.045Z,26.14
2023-04-29T01:45:31.091Z,26.14
2023-04-29T01:47:44.461Z,26.17
2023-04-29T01:49:57.528Z,26.21
2023-04-29T01:52:10.715Z,26.10
2023-04-29T01:54:25.094Z,26.08
2023-04-29T01:56:37.910Z,26.18
2023-04-29T01:58:58.920Z,25.93
2023-04-29T02:01:43.794Z,26.06
2023-04-29T02:03:56.602Z,26.11
2023-04-29T02:06:10.005Z,26.19
2023-04-29T02:08:22.842Z,26.07
2023-04-29T02:10:38.377Z,26.14
2023-04-29T02:13:09.089Z,26.26
2023-04-29T02:15:22.556Z,26.24
2023-04-29T02:17:36.984Z,26.45
2023-04-29T02:19:49.900Z,26.51
2023-04-29T02:22:05.380Z,26.55
2023-04-29T02:24:18.108Z,26.51
2023-04-29T02:26:34.815Z,26.38
2023-04-29T02:28:48.333Z,26.42
2023-04-29T02:31:02.725Z,26.08
2023-04-29T02:33:16.002Z,26.36
2023-04-29T02:35:28.796Z,26.43
2023-04-29T02:37:42.162Z,26.40
2023-04-29T02:39:55.235Z,26.49
2023-04-29T02:42:08.398Z,26.62
2023-04-29T02:44:21.742Z,26.54
2023-04-29T02:46:35.761Z,26.73
2023-04-29T02:48:49.092Z,27.01
2023-04-29T02:51:01.835Z,26.87
2023-04-29T02:53:14.471Z,27.05
2023-04-29T02:55:27.998Z,27.05
2023-04-29T02:57:43.296Z,27.13
2023-04-29T02:59:56.284Z,26.96
2023-04-29T03:02:09.723Z,27.35
2023-04-29T03:04:23.165Z,27.60
2023-04-29T03:06:36.046Z,27.41
2023-04-29T03:08:49.008Z,27.49
2023-04-29T03:11:01.583Z,27.50
2023-04-29T03:13:15.151Z,27.55
2023-04-29T03:15:29.498Z,27.63
2023-04-29T03:17:43.021Z,27.68
2023-04-29T03:19:55.647Z,27.71
2023-04-29T03:22:09.302Z,27.85
2023-04-29T03:24:22.122Z,27.78
2023-04-29T03:26:34.725Z,27.89
2023-04-29T03:28:48.865Z,27.97
2023-04-29T03:31:02.113Z,28.13
2023-04-29T03:33:15.411Z,28.23
2023-04-29T03:35:27.991Z,28.18
2023-04-29T03:38:16.102Z,28.31
2023-04-29T03:40:28.988Z,28.28
2023-04-29T03:42:41.805Z,28.41
2023-04-29T03:44:54.435Z,28.43
2023-04-29T03:47:07.871Z,28.40
2023-04-29T03:49:20.629Z,28.57
2023-04-29T03:51:33.561Z,28.67
2023-04-29T03:53:52.871Z,28.64
2023-04-29T03:56:05.507Z,28.74
2023-04-29T03:58:17.912Z,28.87
2023-04-29T04:00:32.313Z,28.92
2023-04-29T04:02:45.809Z,29.04
2023-04-29T04:05:00.138Z,29.00
2023-04-29T04:07:12.995Z,29.07
2023-04-29T04:09:45.232Z,29.15
2023-04-29T04:11:58.279Z,29.02
2023-04-29T04:14:11.128Z,29.10
2023-04-29T04:16:23.536Z,29.14
2023-04-29T04:18:37.719Z,29.20
2023-04-29T04:20:50.553Z,29.19
2023-04-29T04:23:04.206Z,29.30
2023-04-29T04:25:18.477Z,29.32
2023-04-29T04:27:31.503Z,29.39
2023-04-29T04:29:45.798Z,29.39
2023-04-29T04:32:06.504Z,29.56
2023-04-29T04:34:19.906Z,29.44
2023-04-29T04:36:35.764Z,29.51
2023-04-29T04:38:48.301Z,29.53
2023-04-29T04:41:00.789Z,29.69
2023-04-29T04:43:20.260Z,29.70
2023-04-29T04:45:34.235Z,29.79
2023-04-29T04:47:48.201Z,29.87
2023-04-29T04:50:07.194Z,29.93
2023-04-29T04:52:19.830Z,30.08
2023-04-29T04:54:36.145Z,30.14
2023-04-29T04:56:58.357Z,30.15
2023-04-29T04:59:11.158Z,30.13
2023-04-29T05:01:24.330Z,30.20
2023-04-29T05:03:37.953Z,30.44
2023-04-29T05:05:56.075Z,30.35
2023-04-29T05:08:09.491Z,30.42
2023-04-29T05:10:28.081Z,30.59
2023-04-29T05:12:41.883Z,30.77
2023-04-29T05:14:58.548Z,30.73
2023-04-29T05:17:12.564Z,30.76
2023-04-29T05:19:25.674Z,30.95
2023-04-29T05:21:38.761Z,30.97
2023-04-29T05:23:51.251Z,30.80
2023-04-29T05:26:03.754Z,31.05
2023-04-29T05:28:16.611Z,31.03
2023-04-29T05:30:29.887Z,31.14
2023-04-29T05:32:42.757Z,31.04
2023-04-29T05:34:57.834Z,31.21
2023-04-29T05:37:10.353Z,31.28
2023-04-29T05:39:33.558Z,31.44
2023-04-29T05:41:53.632Z,31.38
2023-04-29T05:44:19.459Z,31.52
2023-04-29T05:46:31.967Z,31.64
2023-04-29T05:48:44.863Z,31.57
2023-04-29T05:50:58.082Z,31.61
2023-04-29T05:53:10.920Z,31.58
2023-04-29T05:55:23.961Z,31.56
2023-04-29T05:57:36.494Z,31.58
2023-04-29T05:59:49.188Z,31.58
2023-04-29T06:02:01.709Z,31.88
2023-04-29T06:04:15.391Z,31.95
2023-04-29T06:06:47.188Z,32.15
2023-04-29T06:09:23.835Z,32.29
2023-04-29T06:11:37.665Z,32.60
2023-04-29T06:13:50.339Z,32.68
2023-04-29T06:16:03.619Z,32.90
2023-04-29T06:18:18.763Z,32.97
2023-04-29T06:20:31.171Z,32.87
2023-04-29T06:22:44.602Z,32.76
2023-04-29T06:24:57.186Z,32.81
2023-04-29T06:27:23.170Z,32.87
2023-04-29T06:29:36.058Z,33.24
2023-04-29T06:31:48.647Z,33.05
2023-04-29T06:34:01.290Z,33.07
2023-04-29T06:36:14.346Z,33.23
2023-04-29T06:38:48.177Z,33.16
2023-04-29T06:41:26.893Z,33.24
2023-04-29T06:43:56.992Z,33.36
2023-04-29T06:46:30.189Z,33.50
2023-04-29T06:49:02.186Z,33.52
2023-04-29T06:51:19.170Z,33.46
2023-04-29T06:53:31.575Z,33.57
2023-04-29T06:55:43.981Z,33.61
2023-04-29T06:57:56.617Z,33.56
2023-04-29T07:00:09.932Z,33.39
2023-04-29T07:02:22.370Z,33.55
2023-04-29T07:04:34.860Z,33.49
2023-04-29T07:06:48.132Z,33.58
2023-04-29T07:09:00.524Z,33.57
2023-04-29T07:11:14.107Z,33.58
2023-04-29T07:13:26.628Z,33.73
2023-04-29T07:15:40.594Z,33.79
2023-04-29T07:17:53.483Z,33.91
2023-04-29T07:20:07.342Z,34.09
2023-04-29T07:22:19.772Z,34.12
2023-04-29T07:24:32.204Z,34.11
2023-04-29T07:26:46.134Z,34.32
2023-04-29T07:29:00.766Z,34.32
2023-04-29T07:31:15.422Z,34.45
2023-04-29T07:33:27.959Z,34.67
2023-04-29T07:35:42.712Z,34.66
2023-04-29T07:37:55.455Z,34.78
2023-04-29T07:40:08.882Z,35.00
2023-04-29T07:42:24.145Z,35.17
2023-04-29T07:44:44.260Z,35.35
2023-04-29T07:46:57.162Z,35.35
2023-04-29T07:49:10.045Z,35.51
2023-04-29T07:51:22.875Z,35.56
2023-04-29T07:53:35.423Z,35.69
2023-04-29T07:55:48.605Z,35.83
2023-04-29T07:58:01.060Z,35.85
2023-04-29T08:00:16.201Z,36.06
2023-04-29T08:02:29.027Z,36.10
2023-04-29T08:04:45.317Z,36.22
2023-04-29T08:06:58.788Z,36.49
2023-04-29T08:09:11.885Z,36.58
2023-04-29T08:11:28.554Z,36.66
2023-04-29T08:13:41.223Z,36.74
2023-04-29T08:15:53.715Z,36.89
2023-04-29T08:18:07.075Z,36.94
2023-04-29T08:20:21.494Z,37.16
2023-04-29T08:22:34.119Z,37.41
2023-04-29T08:24:46.467Z,37.52
2023-04-29T08:27:00.329Z,37.58
2023-04-29T08:29:12.947Z,37.63
2023-04-29T08:31:27.113Z,37.81
2023-04-29T08:33:40.200Z,37.93
2023-04-29T08:35:52.799Z,38.01
2023-04-29T08:38:06.122Z,38.07
2023-04-29T08:40:19.477Z,37.91
2023-04-29T08:42:41.831Z,37.84
2023-04-29T08:44:55.656Z,37.90
2023-04-29T08:47:08.514Z,37.97
2023-04-29T08:49:21.596Z,38.00
2023-04-29T08:51:35.860Z,38.04
2023-04-29T08:53:48.695Z,38.22
2023-04-29T08:56:03.341Z,38.20
2023-04-29T08:58:16.816Z,38.32
2023-04-29T09:00:30.845Z,38.36
2023-04-29T09:02:50.815Z,38.58
2023-04-29T09:05:12.257Z,38.55
2023-04-29T09:07:25.411Z,38.81
2023-04-29T09:09:39.319Z,38.95
2023-04-29T09:11:51.679Z,39.10
2023-04-29T09:14:07.645Z,39.26
2023-04-29T09:16:23.083Z,39.36
2023-04-29T09:18:52.544Z,39.68
2023-04-29T09:21:16.116Z,39.77
2023-04-29T09:23:42.752Z,39.89
2023-04-29T09:26:02.978Z,39.95
2023-04-29T09:28:22.614Z,40.05
2023-04-29T09:30:35.076Z,40.30
2023-04-29T09:32:48.698Z,40.38
2023-04-29T09:35:01.219Z,40.59
2023-04-29T09:37:29.786Z,40.71
2023-04-29T09:39:46.101Z,40.86
2023-04-29T09:42:08.027Z,41.03
2023-04-29T09:44:18.098Z,41.16
2023-04-29T09:46:31.475Z,41.10
2023-04-29T09:48:44.492Z,41.18
2023-04-29T09:51:07.736Z,41.23
2023-04-29T09:53:34.094Z,41.23
2023-04-29T09:56:06.734Z,41.30
2023-04-29T09:58:38.277Z,41.39
2023-04-29T10:03:52.053Z,41.54
2023-04-29T10:06:05.615Z,41.62
2023-04-29T10:08:18.439Z,41.75
2023-04-29T10:10:32.437Z,41.84
2023-04-29T10:12:46.725Z,41.91
2023-04-29T10:15:06.541Z,41.97
2023-04-29T10:17:27.962Z,42.08
2023-04-29T10:19:56.626Z,42.26
2023-04-29T10:22:12.308Z,42.38
2023-04-29T10:24:27.569Z,42.42
2023-04-29T10:26:42.319Z,42.39
2023-04-29T10:28:58.416Z,42.55
2023-04-29T10:31:13.070Z,42.63
2023-04-29T10:33:26.895Z,42.72
2023-04-29T10:35:39.870Z,42.87
2023-04-29T10:37:53.963Z,42.88
2023-04-29T10:40:17.058Z,43.09
2023-04-29T10:42:46.220Z,43.16
2023-04-29T10:45:23.146Z,43.40
2023-04-29T10:47:37.721Z,43.41
2023-04-29T10:50:08.054Z,43.43
2023-04-29T10:52:22.878Z,43.45
2023-04-29T10:54:35.856Z,43.49
2023-04-29T10:56:51.376Z,43.53
2023-04-29T10:59:03.896Z,43.55
2023-04-29T11:01:18.049Z,43.70
2023-04-29T11:03:59.582Z,43.71
2023-04-29T11:06:17.714Z,43.85
2023-04-29T11:08:30.325Z,44.13
2023-04-29T11:10:46.999Z,44.14
2023-04-29T11:13:26.915Z,44.34
2023-04-29T11:15:41.531Z,44.35
2023-04-29T11:17:53.938Z,44.44
2023-04-29T11:20:07.164Z,44.64
2023-04-29T11:22:28.797Z,44.78
2023-04-29T11:24:51.498Z,44.94
2023-04-29T11:27:08.374Z,45.18
2023-04-29T11:29:21.594Z,45.43
2023-04-29T11:31:38.991Z,45.60
2023-04-29T11:33:52.904Z,45.78
2023-04-29T11:36:05.192Z,45.86
2023-04-29T11:38:17.946Z,45.78
2023-04-29T11:40:30.509Z,45.74
2023-04-29T11:42:47.557Z,45.68
2023-04-29T11:45:01.538Z,45.56
2023-04-29T11:47:15.036Z,45.54
2023-04-29T11:49:34.945Z,45.53
2023-04-29T11:51:47.316Z,45.50
2023-04-29T11:54:00.738Z,45.58
2023-04-29T11:56:14.273Z,45.82
2023-04-29T11:58:27.144Z,46.11
2023-04-29T12:00:39.786Z,46.04
2023-04-29T12:02:52.700Z,46.23
2023-04-29T12:05:09.429Z,46.28
2023-04-29T12:07:23.165Z,46.25
2023-04-29T12:09:46.450Z,46.34
2023-04-29T12:11:59.027Z,46.58
2023-04-29T12:14:11.834Z,46.51
2023-04-29T12:16:25.316Z,46.36
2023-04-29T12:18:37.939Z,46.62
2023-04-29T12:20:52.574Z,46.62
2023-04-29T12:23:19.865Z,46.74
2023-04-29T12:25:35.679Z,46.89
2023-04-29T12:27:48.393Z,46.99
2023-04-29T12:30:02.551Z,47.00
2023-04-29T12:32:25.381Z,47.09
2023-04-29T12:34:39.013Z,47.17
2023-04-29T12:36:51.689Z,47.27
2023-04-29T12:39:04.916Z,47.27
2023-04-29T12:41:18.645Z,47.54
2023-04-29T12:43:34.916Z,47.70
2023-04-29T12:45:48.052Z,47.66
2023-04-29T12:48:02.502Z,47.86
2023-04-29T12:50:17.394Z,47.96
2023-04-29T12:52:30.250Z,48.15
2023-04-29T12:54:44.561Z,48.26
2023-04-29T12:56:57.517Z,48.43
2023-04-29T12:59:14.276Z,48.56
2023-04-29T13:01:27.287Z,48.68
2023-04-29T13:03:40.145Z,48.85
2023-04-29T13:05:55.088Z,49.07
2023-04-29T13:08:08.563Z,49.20
2023-04-29T13:10:21.032Z,49.44
2023-04-29T13:12:33.542Z,49.19
2023-04-29T13:14:45.915Z,49.28
2023-04-29T13:16:58.603Z,49.27
2023-04-29T13:19:28.212Z,49.15
2023-04-29T13:21:44.106Z,49.11
2023-04-29T13:23:57.037Z,49.17
2023-04-29T13:26:10.865Z,49.13
2023-04-29T13:28:23.504Z,49.20
2023-04-29T13:30:36.721Z,49.12
2023-04-29T13:32:54.730Z,49.20
2023-04-29T13:35:12.805Z,49.11
2023-04-29T13:37:25.401Z,49.10
2023-04-29T13:39:38.560Z,49.13
2023-04-29T13:41:51.034Z,49.18
2023-04-29T13:44:04.927Z,49.20
2023-04-29T13:46:20.947Z,49.17
2023-04-29T13:51:16.947Z,49.37
2023-04-29T13:53:57.008Z,49.39
2023-04-29T13:58:56.133Z,49.49
2023-04-29T14:01:16.991Z,49.46
2023-04-29T14:03:21.166Z,49.55
2023-04-29T14:05:33.928Z,49.46
2023-04-29T14:07:46.518Z,49.46
2023-04-29T14:09:59.598Z,49.44
2023-04-29T14:12:12.690Z,49.50
2023-04-29T14:14:25.564Z,49.43
2023-04-29T14:16:37.940Z,49.50
2023-04-29T14:18:50.336Z,49.46
2023-04-29T14:21:03.437Z,49.37
2023-04-29T14:23:15.742Z,49.34
2023-04-29T14:25:29.136Z,48.98
2023-04-29T14:27:42.045Z,48.52
2023-04-29T14:29:54.992Z,48.19
2023-04-29T14:32:08.630Z,48.01
2023-04-29T14:34:22.222Z,47.84
2023-04-29T14:36:35.535Z,47.75
2023-04-29T14:38:48.180Z,47.85
2023-04-29T14:41:00.940Z,47.86
2023-04-29T14:43:13.456Z,47.94
2023-04-29T14:45:26.560Z,47.88
2023-04-29T14:47:39.884Z,47.87
2023-04-29T14:49:52.279Z,47.79
2023-04-29T14:52:05.796Z,47.73
2023-04-29T14:54:18.350Z,47.84
2023-04-29T14:56:30.999Z,47.72
2023-04-29T14:58:44.128Z,47.67
2023-04-29T15:00:57.251Z,47.53
2023-04-29T15:03:10.877Z,47.42
2023-04-29T15:05:23.888Z,47.21
2023-04-29T15:07:37.016Z,47.01
2023-04-29T15:09:49.498Z,46.95
2023-04-29T15:12:02.195Z,46.49
2023-04-29T15:14:15.350Z,45.83
2023-04-29T15:16:29.677Z,44.85
2023-04-29T15:18:44.190Z,43.95
2023-04-29T15:20:58.910Z,43.38
2023-04-29T15:23:12.322Z,42.85
2023-04-29T15:25:26.657Z,42.31
2023-04-29T15:27:40.876Z,41.69
2023-04-29T15:29:55.503Z,41.12
2023-04-29T15:32:08.010Z,40.46
2023-04-29T15:34:20.902Z,39.88
2023-04-29T15:36:38.134Z,39.44
2023-04-29T15:38:50.715Z,38.83
2023-04-29T15:41:05.057Z,38.57
2023-04-29T15:43:17.584Z,38.13
2023-04-29T15:45:30.250Z,37.89
2023-04-29T15:47:42.781Z,37.78
2023-04-29T15:49:57.163Z,37.69
2023-04-29T15:52:10.437Z,37.55
2023-04-29T15:54:22.868Z,37.54
2023-04-29T15:56:35.773Z,37.49
2023-04-29T15:58:48.137Z,37.48
2023-04-29T16:01:00.762Z,37.35
2023-04-29T16:03:13.625Z,37.24
2023-04-29T16:05:26.908Z,37.18
2023-04-29T16:07:39.966Z,37.09
2023-04-29T16:09:52.710Z,37.06
2023-04-29T16:12:06.071Z,37.06
2023-04-29T16:14:18.446Z,37.05
2023-04-29T16:16:30.944Z,36.87
2023-04-29T16:18:43.474Z,36.83
2023-04-29T16:20:55.849Z,36.82
2023-04-29T16:23:08.489Z,36.82
2023-04-29T16:25:21.206Z,36.81
2023-04-29T16:27:33.847Z,36.69
2023-04-29T16:29:46.466Z,36.43
2023-04-29T16:31:59.031Z,36.60
2023-04-29T16:34:11.722Z,36.46
2023-04-29T16:36:24.927Z,36.71
2023-04-29T16:38:37.471Z,36.32
2023-04-29T16:40:50.834Z,36.18
2023-04-29T16:43:06.520Z,36.33
2023-04-29T16:45:21.079Z,36.07
2023-04-29T16:47:36.420Z,36.29
2023-04-29T16:49:49.628Z,36.21
2023-04-29T16:52:02.289Z,36.14
2023-04-29T16:54:14.661Z,36.26
2023-04-29T16:56:27.464Z,36.24
2023-04-29T16:58:40.145Z,36.29
2023-04-29T17:00:52.639Z,36.17
2023-04-29T17:03:05.486Z,36.14
2023-04-29T17:05:19.830Z,36.05
2023-04-29T17:07:33.573Z,35.98
2023-04-29T17:09:48.240Z,35.85
2023-04-29T17:12:00.794Z,36.00
2023-04-29T17:14:13.228Z,35.93
2023-04-29T17:16:27.327Z,36.06
2023-04-29T17:18:39.907Z,35.69
2023-04-29T17:20:52.935Z,35.82
2023-04-29T17:23:05.673Z,35.87
2023-04-29T17:25:19.062Z,35.93
2023-04-29T17:27:32.108Z,35.87
2023-04-29T17:29:45.024Z,35.78
2023-04-29T17:32:01.069Z,35.67
2023-04-29T17:34:19.443Z,35.46
2023-04-29T17:36:32.227Z,35.16
2023-04-29T17:38:45.568Z,34.86
2023-04-29T17:40:58.324Z,35.13
2023-04-29T17:43:10.794Z,35.03
2023-04-29T17:45:23.328Z,34.74
2023-04-29T17:47:36.573Z,34.92
2023-04-29T17:49:49.877Z,34.80
2023-04-29T17:52:05.066Z,34.91
2023-04-29T17:54:17.599Z,34.69
2023-04-29T17:56:30.406Z,34.84
2023-04-29T17:58:42.734Z,34.51
2023-04-29T18:00:57.055Z,34.17
2023-04-29T18:03:11.073Z,34.12
2023-04-29T18:05:23.651Z,33.80
2023-04-29T18:07:36.170Z,34.08
2023-04-29T18:09:49.503Z,33.71
2023-04-29T18:12:03.143Z,33.38
2023-04-29T18:14:16.044Z,33.34
2023-04-29T18:16:29.067Z,33.06
2023-04-29T18:18:41.794Z,33.27
2023-04-29T18:20:54.351Z,33.12
2023-04-29T18:23:07.042Z,32.90
2023-04-29T18:25:20.522Z,32.76
2023-04-29T18:27:33.096Z,33.18
2023-04-29T18:29:45.569Z,33.04
2023-04-29T18:31:58.172Z,32.89
2023-04-29T18:34:10.790Z,32.67
2023-04-29T18:36:24.757Z,32.55
2023-04-29T18:38:37.201Z,32.27
2023-04-29T18:40:51.241Z,32.40
2023-04-29T18:43:03.758Z,32.41
2023-04-29T18:45:17.157Z,32.60
2023-04-29T18:47:29.730Z,32.10
2023-04-29T18:49:42.633Z,32.29
2023-04-29T18:51:54.967Z,32.19
2023-04-29T18:54:07.642Z,32.17
2023-04-29T18:56:21.338Z,31.99
2023-04-29T18:58:33.829Z,31.90
2023-04-29T19:00:46.458Z,31.80
2023-04-29T19:02:59.271Z,31.50
2023-04-29T19:05:13.912Z,31.47
2023-04-29T19:07:26.577Z,31.47
2023-04-29T19:09:39.403Z,31.53
2023-04-29T19:11:52.639Z,31.47
2023-04-29T19:14:05.799Z,31.45
2023-04-29T19:16:18.173Z,31.57
2023-04-29T19:18:30.597Z,31.32
2023-04-29T19:20:43.728Z,30.99
2023-04-29T19:22:56.586Z,30.92
2023-04-29T19:25:09.477Z,30.95
2023-04-29T19:27:22.314Z,31.07
2023-04-29T19:29:34.723Z,31.16
2023-04-29T19:31:47.322Z,31.15
2023-04-29T19:33:59.704Z,30.86
2023-04-29T19:36:13.899Z,30.69
2023-04-29T19:38:26.774Z,30.47
2023-04-29T19:40:39.415Z,30.37
2023-04-29T19:42:52.681Z,30.41
2023-04-29T19:45:06.097Z,30.31
2023-04-29T19:47:18.393Z,30.39
2023-04-29T19:49:31.460Z,30.16
2023-04-29T19:51:44.680Z,30.09
2023-04-29T19:53:59.046Z,30.36
2023-04-29T19:56:11.753Z,30.73
2023-04-29T19:58:28.883Z,30.81
2023-04-29T20:00:41.681Z,29.88
2023-04-29T20:02:54.539Z,29.98
2023-04-29T20:05:07.630Z,30.32
2023-04-29T20:07:19.982Z,30.15
2023-04-29T20:09:32.966Z,29.71
2023-04-29T20:11:45.571Z,29.46
2023-04-29T20:13:58.318Z,29.45
2023-04-29T20:16:12.287Z,29.42
2023-04-29T20:18:24.717Z,29.29
2023-04-29T20:20:37.274Z,29.12
2023-04-29T20:22:50.127Z,29.12
2023-04-29T20:25:03.474Z,28.79
2023-04-29T20:27:15.997Z,28.65
2023-04-29T20:29:28.636Z,28.96
2023-04-29T20:31:41.279Z,28.99
2023-04-29T20:33:54.751Z,28.81
2023-04-29T20:36:08.498Z,28.25
2023-04-29T20:38:22.437Z,28.35
2023-04-29T20:40:35.709Z,28.60
2023-04-29T20:42:48.140Z,28.46
2023-04-29T20:45:01.001Z,28.54
2023-04-29T20:47:13.558Z,28.76
2023-04-29T20:49:26.013Z,28.36
2023-04-29T20:51:38.441Z,27.69
2023-04-29T20:53:51.099Z,27.39
2023-04-29T20:56:03.755Z,27.18
2023-04-29T20:58:17.423Z,26.95
2023-04-29T21:00:30.101Z,26.97
2023-04-29T21:02:43.070Z,27.37
2023-04-29T21:04:55.552Z,27.45
2023-04-29T21:07:11.244Z,27.48
2023-04-29T21:09:24.264Z,27.75
2023-04-29T21:11:37.121Z,26.77
2023-04-29T21:13:51.376Z,26.62
2023-04-29T21:16:04.427Z,26.56
2023-04-29T21:18:16.999Z,26.36
2023-04-29T21:20:31.308Z,26.33
2023-04-29T21:22:43.845Z,26.55
2023-04-29T21:24:56.336Z,26.79
2023-04-29T21:27:08.971Z,26.50
2023-04-29T21:29:21.591Z,25.85
2023-04-29T21:31:35.959Z,25.66
2023-04-29T21:33:48.568Z,25.90
2023-04-29T21:36:01.062Z,26.04
2023-04-29T21:38:13.756Z,26.39
2023-04-29T21:40:27.581Z,26.17
2023-04-29T21:42:40.479Z,25.89
2023-04-29T21:44:52.883Z,25.18
2023-04-29T21:47:06.078Z,24.95
2023-04-29T21:49:18.622Z,24.18
2023-04-29T21:51:32.825Z,23.54
2023-04-29T21:53:45.562Z,23.27
2023-04-29T21:55:57.948Z,23.12
2023-04-29T21:58:11.086Z,22.57
2023-04-29T22:00:31.813Z,21.70
2023-04-29T22:02:44.563Z,22.08
2023-04-29T22:04:58.291Z,21.81
2023-04-29T22:07:11.259Z,21.55
2023-04-29T22:09:23.806Z,21.59
2023-04-29T22:11:36.530Z,21.32
2023-04-29T22:13:49.098Z,21.35
2023-04-29T22:16:01.501Z,21.00
2023-04-29T22:18:14.901Z,21.33
2023-04-29T22:20:27.829Z,21.42
2023-04-29T22:22:40.211Z,20.93
2023-04-29T22:24:52.936Z,20.38
2023-04-29T22:27:05.542Z,19.81
2023-04-29T22:29:17.885Z,19.62
2023-04-29T22:31:30.415Z,19.93
2023-04-29T22:33:43.281Z,19.87
2023-04-29T22:35:55.847Z,19.66
2023-04-29T22:38:08.343Z,19.28
2023-04-29T22:40:21.159Z,19.11
2023-04-29T22:42:33.512Z,18.83
2023-04-29T22:44:46.120Z,18.04
2023-04-29T22:46:58.420Z,18.09
2023-04-29T22:49:11.376Z,18.01
2023-04-29T22:51:23.841Z,17.60
2023-04-29T22:53:36.670Z,17.54
2023-04-29T22:55:55.335Z,17.13
2023-04-29T22:58:08.033Z,17.03
2023-04-29T23:00:21.904Z,17.03
2023-04-29T23:02:34.371Z,16.73
2023-04-29T23:04:47.072Z,16.70
2023-04-29T23:06:59.447Z,16.48
2023-04-29T23:09:12.844Z,16.26
2023-04-29T23:11:25.237Z,16.16
2023-04-29T23:13:37.917Z,15.99
2023-04-29T23:15:50.750Z,16.11
2023-04-29T23:18:03.728Z,16.48
2023-04-29T23:20:19.393Z,16.65
2023-04-29T23:22:32.204Z,16.60
2023-04-29T23:24:44.855Z,16.64
2023-04-29T23:26:57.282Z,16.77
2023-04-29T23:29:09.815Z,16.42
2023-04-29T23:31:22.211Z,16.38
2023-04-29T23:33:34.988Z,16.63
2023-04-29T23:35:50.737Z,16.84
2023-04-29T23:38:03.184Z,16.67
2023-04-29T23:40:17.377Z,16.67
2023-04-29T23:42:29.980Z,16.69
2023-04-29T23:44:42.645Z,16.47
2023-04-29T23:46:55.007Z,16.27
2023-04-29T23:49:07.419Z,16.08
2023-04-29T23:51:20.608Z,15.75
2023-04-29T23:53:33.404Z,15.59
2023-04-29T23:55:45.884Z,15.82
2023-04-29T23:57:58.193Z,15.92
